createdAt,value
2019-06-01T00:02:02.518Z,50.45
2019-06-01T00:05:09.275Z,51.02
2019-06-01T00:08:15.691Z,52.06
2019-06-01T00:11:22.123Z,52.91
2019-06-01T00:14:28.487Z,52.68
2019-06-01T00:17:35.116Z,53.02
2019-06-01T00:20:42.208Z,53.02
2019-06-01T00:23:48.791Z,52.92
2019-06-01T00:26:55.223Z,54.49
2019-06-01T00:30:01.675Z,55.82
2019-06-01T00:33:08.086Z,55.68
2019-06-01T00:36:14.573Z,54.45
2019-06-01T00:39:21.339Z,54.63
2019-06-01T00:42:27.823Z,54.72
2019-06-01T00:45:34.233Z,54.03
2019-06-01T00:48:41.709Z,53.88
2019-06-01T00:51:49.082Z,54.27
2019-06-01T00:54:55.579Z,54.01
2019-06-01T00:58:01.873Z,54.27
2019-06-01T01:01:08.522Z,54.07
2019-06-01T01:04:14.874Z,54.66
2019-06-01T01:07:21.326Z,54.63
2019-06-01T01:10:27.655Z,54.19
2019-06-01T01:13:34.086Z,53.77
2019-06-01T01:16:40.538Z,54.13
2019-06-01T01:19:47.664Z,54.66
2019-06-01T01:22:54.382Z,54.62
2019-06-01T01:26:00.747Z,54.62
2019-06-01T01:29:08.161Z,54.42
2019-06-01T01:32:14.577Z,56.30
2019-06-01T01:35:20.964Z,56.55
2019-06-01T01:38:27.418Z,56.52
2019-06-01T01:41:34.025Z,55.79
2019-06-01T01:44:41.573Z,56.76
2019-06-01T01:47:49.420Z,55.88
2019-06-01T01:50:56.458Z,57.29
2019-06-01T01:54:04.520Z,57.78
2019-06-01T01:57:11.115Z,57.78
2019-06-01T02:00:32.510Z,58.93
2019-06-01T02:03:39.047Z,58.08
2019-06-01T02:06:45.425Z,56.95
2019-06-01T02:09:53.037Z,57.83
2019-06-01T02:12:59.733Z,56.87
2019-06-01T02:16:06.187Z,57.54
2019-06-01T02:19:12.525Z,57.80
2019-06-01T02:22:19.117Z,57.80
2019-06-01T02:25:25.666Z,57.94
2019-06-01T02:28:32.043Z,57.18
2019-06-01T02:31:42.356Z,56.67
2019-06-01T02:34:46.740Z,57.04
2019-06-01T02:37:54.725Z,57.34
2019-06-01T02:41:03.056Z,56.47
2019-06-01T02:44:09.665Z,57.26
2019-06-01T02:47:16.138Z,57.71
2019-06-01T02:50:23.288Z,58.14
2019-06-01T02:53:30.821Z,57.98
2019-06-01T02:56:37.199Z,58.14
2019-06-01T02:59:43.660Z,58.64
2019-06-01T03:02:49.991Z,57.87
2019-06-01T03:05:57.452Z,57.89
2019-06-01T03:09:08.349Z,56.96
2019-06-01T03:12:15.977Z,56.79
2019-06-01T03:15:22.260Z,57.16
2019-06-01T03:18:30.599Z,57.42
2019-06-01T03:21:37.036Z,57.06
2019-06-01T03:24:46.116Z,57.13
2019-06-01T03:27:54.236Z,57.47
2019-06-01T03:31:03.494Z,57.14
2019-06-01T03:34:11.489Z,57.13
2019-06-01T03:37:18.200Z,57.14
2019-06-01T03:40:24.552Z,56.87
2019-06-01T03:43:31.042Z,57.28
2019-06-01T03:46:37.737Z,57.82
2019-06-01T03:49:44.183Z,57.13
2019-06-01T03:52:50.470Z,57.66
2019-06-01T03:55:56.869Z,57.22
2019-06-01T03:59:03.315Z,57.80
2019-06-01T04:02:11.132Z,57.67
2019-06-01T04:05:17.547Z,57.86
2019-06-01T04:08:24.019Z,58.12
2019-06-01T04:11:30.505Z,57.86
2019-06-01T04:14:37.099Z,58.00
2019-06-01T04:17:43.484Z,58.55
2019-06-01T04:20:49.979Z,58.24
2019-06-01T04:23:56.353Z,57.81
2019-06-01T04:27:04.109Z,58.20
2019-06-01T04:30:11.498Z,57.88
2019-06-01T04:33:18.057Z,58.31
2019-06-01T04:36:24.327Z,58.06
2019-06-01T04:39:32.019Z,57.51
2019-06-01T04:42:38.369Z,57.31
2019-06-01T04:45:44.788Z,58.25
2019-06-01T04:48:51.678Z,58.20
2019-06-01T04:51:58.193Z,58.10
2019-06-01T04:55:05.214Z,58.12
2019-06-01T04:58:13.063Z,58.61
2019-06-01T05:01:19.466Z,57.77
2019-06-01T05:04:26.210Z,58.71
2019-06-01T05:07:32.619Z,58.41
2019-06-01T05:10:38.959Z,58.55
2019-06-01T05:13:46.405Z,58.02
2019-06-01T05:16:52.967Z,58.69
2019-06-01T05:19:59.331Z,57.93
2019-06-01T05:23:06.565Z,58.04
2019-06-01T05:26:13.262Z,57.67
2019-06-01T05:29:21.373Z,58.07
2019-06-01T05:32:27.953Z,57.65
2019-06-01T05:35:34.410Z,57.71
2019-06-01T05:38:40.776Z,58.14
2019-06-01T05:41:47.503Z,57.84
2019-06-01T05:44:54.184Z,56.98
2019-06-01T05:48:00.584Z,56.91
2019-06-01T05:51:07.332Z,57.22
2019-06-01T05:54:16.695Z,56.72
2019-06-01T05:57:23.331Z,56.64
2019-06-01T06:00:43.014Z,56.45
2019-06-01T06:03:49.409Z,56.19
2019-06-01T06:06:55.908Z,57.17
2019-06-01T06:10:02.450Z,56.13
2019-06-01T06:13:08.807Z,55.65
2019-06-01T06:16:15.734Z,55.97
2019-06-01T06:19:23.768Z,55.68
2019-06-01T06:22:30.167Z,55.74
2019-06-01T06:25:39.649Z,55.69
2019-06-01T06:28:44.660Z,55.97
2019-06-01T06:31:51.279Z,55.75
2019-06-01T06:34:57.858Z,55.38
2019-06-01T06:38:04.300Z,55.03
2019-06-01T06:41:10.622Z,54.85
2019-06-01T06:44:17.148Z,55.01
2019-06-01T06:47:23.468Z,54.85
2019-06-01T06:50:29.973Z,54.85
2019-06-01T06:53:36.481Z,54.26
2019-06-01T06:56:43.094Z,54.07
2019-06-01T06:59:50.470Z,53.86
2019-06-01T07:02:56.868Z,54.42
2019-06-01T07:06:03.247Z,54.28
2019-06-01T07:09:09.724Z,54.32
2019-06-01T07:12:16.124Z,53.93
2019-06-01T07:15:23.487Z,53.04
2019-06-01T07:18:29.905Z,52.42
2019-06-01T07:21:36.898Z,52.17
2019-06-01T07:24:43.269Z,51.69
2019-06-01T07:27:49.756Z,51.61
2019-06-01T07:30:58.858Z,50.71
2019-06-01T07:34:05.494Z,50.00
2019-06-01T07:37:12.094Z,49.59
2019-06-01T07:40:20.962Z,48.17
2019-06-01T07:43:27.413Z,47.51
2019-06-01T07:46:33.975Z,46.93
2019-06-01T07:49:40.305Z,45.61
2019-06-01T07:52:46.687Z,43.10
2019-06-01T07:55:53.260Z,43.04
2019-06-01T07:58:59.668Z,43.68
2019-06-01T08:02:06.039Z,44.22
2019-06-01T08:05:12.551Z,42.86
2019-06-01T08:08:18.884Z,40.79
2019-06-01T08:11:29.349Z,39.89
2019-06-01T08:14:33.273Z,38.88
2019-06-01T08:17:39.632Z,35.71
2019-06-01T08:20:46.036Z,36.41
2019-06-01T08:23:52.450Z,36.41
2019-06-01T08:26:58.908Z,35.22
2019-06-01T08:30:05.986Z,35.22
2019-06-01T08:33:12.385Z,32.03
2019-06-01T08:36:18.742Z,29.47
2019-06-01T08:39:25.320Z,32.37
2019-06-01T08:42:31.920Z,27.53
2019-06-01T08:45:38.343Z,28.75
2019-06-01T08:48:44.856Z,27.79
2019-06-01T08:51:52.373Z,28.37
2019-06-01T08:55:00.688Z,28.22
2019-06-01T08:58:07.136Z,25.84
2019-06-01T09:01:13.811Z,27.35
2019-06-01T09:04:20.235Z,26.71
2019-06-01T09:07:26.912Z,25.93
2019-06-01T09:10:33.363Z,27.96
2019-06-01T09:13:39.888Z,28.18
2019-06-01T09:16:46.321Z,28.74
2019-06-01T09:19:52.659Z,30.95
2019-06-01T09:22:58.967Z,31.48
2019-06-01T09:26:05.488Z,32.60
2019-06-01T09:29:12.045Z,33.16
2019-06-01T09:32:18.467Z,34.54
2019-06-01T09:35:44.718Z,37.21
2019-06-01T09:38:33.850Z,39.46
2019-06-01T09:41:41.536Z,40.35
2019-06-01T09:44:47.895Z,43.36
2019-06-01T09:47:54.236Z,44.62
2019-06-01T09:51:00.865Z,46.02
2019-06-01T09:54:07.325Z,47.05
2019-06-01T09:57:13.858Z,46.91
2019-06-01T10:00:21.547Z,47.25
2019-06-01T10:03:28.405Z,46.90
2019-06-01T10:06:34.863Z,46.71
2019-06-01T10:09:42.191Z,46.80
2019-06-01T10:12:48.572Z,47.16
2019-06-01T10:15:55.186Z,47.68
2019-06-01T10:19:01.529Z,47.68
2019-06-01T10:22:07.981Z,47.53
2019-06-01T10:25:14.399Z,47.53
2019-06-01T10:28:20.896Z,47.27
2019-06-01T10:31:27.290Z,47.50
2019-06-01T10:34:33.590Z,48.68
2019-06-01T10:37:40.087Z,51.50
2019-06-01T10:40:46.492Z,51.04
2019-06-01T10:43:52.961Z,50.50
2019-06-01T10:46:59.410Z,50.66
2019-06-01T10:50:06.407Z,50.35
2019-06-01T10:53:12.853Z,49.40
2019-06-01T10:56:19.139Z,49.05
2019-06-01T10:59:25.669Z,48.75
2019-06-01T11:02:32.588Z,48.05
2019-06-01T11:05:39.194Z,48.07
2019-06-01T11:08:45.562Z,48.47
2019-06-01T11:11:52.104Z,47.34
2019-06-01T11:14:58.474Z,46.16
2019-06-01T11:18:05.057Z,45.12
2019-06-01T11:21:11.477Z,46.02
2019-06-01T11:24:19.017Z,45.61
2019-06-01T11:27:25.269Z,46.29
2019-06-01T11:30:31.866Z,47.39
2019-06-01T11:33:38.256Z,47.93
2019-06-01T11:37:03.197Z,46.72
2019-06-01T11:39:52.927Z,46.33
2019-06-01T11:42:59.382Z,46.33
2019-06-01T11:46:06.000Z,47.22
2019-06-01T11:49:12.591Z,47.66
2019-06-01T11:52:18.961Z,50.72
2019-06-01T11:55:25.459Z,54.25
2019-06-01T11:58:32.000Z,56.85
2019-06-01T12:01:39.833Z,56.85
2019-06-01T12:04:46.484Z,56.27
2019-06-01T12:07:53.143Z,57.33
2019-06-01T12:10:59.504Z,57.33
2019-06-01T12:14:05.924Z,58.32
2019-06-01T12:17:12.302Z,58.92
2019-06-01T12:20:19.020Z,59.80
2019-06-01T12:23:25.413Z,59.77
2019-06-01T12:26:33.042Z,60.96
2019-06-01T12:29:39.487Z,60.17
2019-06-01T12:32:46.164Z,59.90
2019-06-01T12:35:52.452Z,59.90
2019-06-01T12:38:59.214Z,60.00
2019-06-01T12:42:05.583Z,59.20
2019-06-01T12:45:22.725Z,59.48
2019-06-01T12:48:26.997Z,59.89
2019-06-01T12:51:33.486Z,59.89
2019-06-01T12:54:40.369Z,59.86
2019-06-01T12:57:47.183Z,60.73
2019-06-01T13:00:53.538Z,62.12
2019-06-01T13:04:00.072Z,63.17
2019-06-01T13:07:07.424Z,63.17
2019-06-01T13:10:14.075Z,64.60
2019-06-01T13:13:20.441Z,66.08
2019-06-01T13:16:26.928Z,65.88
2019-06-01T13:19:33.181Z,67.32
2019-06-01T13:22:39.528Z,68.10
2019-06-01T13:25:45.801Z,68.09
2019-06-01T13:28:52.638Z,70.52
2019-06-01T13:31:58.965Z,71.99
2019-06-01T13:35:06.193Z,73.23
2019-06-01T13:38:12.750Z,74.28
2019-06-01T13:41:19.264Z,72.90
2019-06-01T13:44:25.542Z,73.68
2019-06-01T13:47:31.944Z,77.00
2019-06-01T13:50:38.495Z,77.00
2019-06-01T13:53:46.302Z,74.42
2019-06-01T13:56:53.112Z,76.45
2019-06-01T13:59:59.583Z,72.94
2019-06-01T14:03:07.180Z,73.33
2019-06-01T14:06:13.716Z,74.51
2019-06-01T14:09:21.935Z,73.50
2019-06-01T14:12:28.871Z,74.64
2019-06-01T14:15:35.264Z,73.51
2019-06-01T14:18:41.615Z,75.90
2019-06-01T14:21:48.091Z,76.38
2019-06-01T14:25:11.863Z,74.97
2019-06-01T14:28:02.513Z,74.78
2019-06-01T14:31:09.057Z,73.67
2019-06-01T14:34:15.486Z,73.58
2019-06-01T14:37:22.031Z,75.50
2019-06-01T14:40:28.306Z,75.50
2019-06-01T14:43:34.740Z,74.51
2019-06-01T14:46:53.362Z,76.55
2019-06-01T14:49:53.480Z,74.63
2019-06-01T14:53:00.148Z,76.73
2019-06-01T14:56:06.694Z,76.30
2019-06-01T14:59:13.087Z,75.23
2019-06-01T15:02:19.654Z,75.81
2019-06-01T15:05:26.012Z,74.98
2019-06-01T15:08:32.441Z,76.42
2019-06-01T15:11:39.160Z,75.28
2019-06-01T15:14:45.567Z,73.97
2019-06-01T15:17:51.898Z,74.84
2019-06-01T15:20:58.312Z,74.86
2019-06-01T15:24:04.999Z,75.20
2019-06-01T15:27:11.446Z,74.05
2019-06-01T15:30:19.111Z,73.96
2019-06-01T15:33:25.510Z,73.96
2019-06-01T15:36:33.129Z,72.33
2019-06-01T15:39:39.650Z,72.47
2019-06-01T15:42:46.033Z,73.82
2019-06-01T15:45:53.291Z,72.69
2019-06-01T15:49:00.168Z,72.33
2019-06-01T15:52:06.595Z,71.69
2019-06-01T15:55:13.395Z,72.32
2019-06-01T15:58:19.756Z,70.80
2019-06-01T16:01:26.231Z,69.93
2019-06-01T16:04:32.837Z,69.93
2019-06-01T16:07:39.259Z,70.34
2019-06-01T16:10:45.666Z,70.09
2019-06-01T16:13:55.684Z,70.79
2019-06-01T16:17:02.909Z,69.69
2019-06-01T16:20:10.981Z,71.10
2019-06-01T16:23:18.244Z,70.37
2019-06-01T16:26:24.712Z,71.24
2019-06-01T16:29:31.221Z,70.25
2019-06-01T16:32:39.584Z,72.13
2019-06-01T16:35:45.693Z,72.13
2019-06-01T16:38:59.521Z,72.23
2019-06-01T16:42:02.186Z,71.59
2019-06-01T16:45:08.816Z,71.59
2019-06-01T16:48:15.331Z,71.86
2019-06-01T16:51:22.082Z,74.25
2019-06-01T16:54:28.548Z,76.09
2019-06-01T16:57:35.180Z,74.05
2019-06-01T17:00:41.702Z,75.69
2019-06-01T17:03:48.084Z,76.67
2019-06-01T17:06:54.718Z,77.60
2019-06-01T17:10:19.243Z,77.60
2019-06-01T17:13:09.337Z,75.18
2019-06-01T17:16:15.917Z,77.09
2019-06-01T17:19:22.541Z,75.47
2019-06-01T17:22:29.033Z,74.84
2019-06-01T17:25:35.419Z,75.69
2019-06-01T17:28:42.000Z,76.02
2019-06-01T17:31:54.456Z,74.42
2019-06-01T17:34:56.623Z,75.11
2019-06-01T17:38:03.064Z,75.56
2019-06-01T17:41:10.385Z,75.84
2019-06-01T17:44:16.947Z,76.81
2019-06-01T17:47:27.100Z,75.45
2019-06-01T17:50:31.575Z,74.40
2019-06-01T17:53:38.028Z,75.90
2019-06-01T17:56:44.888Z,75.90
2019-06-01T17:59:51.581Z,76.67
2019-06-01T18:02:58.144Z,77.56
2019-06-01T18:06:05.893Z,77.12
2019-06-01T18:09:12.553Z,77.75
2019-06-01T18:12:19.054Z,78.36
2019-06-01T18:15:25.641Z,78.01
2019-06-01T18:18:33.265Z,78.07
2019-06-01T18:21:39.772Z,77.67
2019-06-01T18:24:46.049Z,77.70
2019-06-01T18:27:52.578Z,77.21
2019-06-01T18:30:59.060Z,78.72
2019-06-01T18:34:05.904Z,75.33
2019-06-01T18:37:13.476Z,74.70
2019-06-01T18:40:21.940Z,74.05
2019-06-01T18:43:28.214Z,73.60
2019-06-01T18:46:34.767Z,73.61
2019-06-01T18:49:41.126Z,72.64
2019-06-01T18:52:50.673Z,73.47
2019-06-01T18:55:57.014Z,73.03
2019-06-01T18:59:06.859Z,72.32
2019-06-01T19:02:14.587Z,72.83
2019-06-01T19:05:21.145Z,72.65
2019-06-01T19:08:27.523Z,72.59
2019-06-01T19:11:36.210Z,72.86
2019-06-01T19:14:42.138Z,72.57
2019-06-01T19:17:48.580Z,72.39
2019-06-01T19:20:55.098Z,72.39
2019-06-01T19:24:01.529Z,72.43
2019-06-01T19:27:08.658Z,72.16
2019-06-01T19:30:17.266Z,72.30
2019-06-01T19:33:23.585Z,71.78
2019-06-01T19:36:30.830Z,71.20
2019-06-01T19:39:38.100Z,71.48
2019-06-01T19:42:44.511Z,70.77
2019-06-01T19:45:51.023Z,70.75
2019-06-01T19:48:57.470Z,70.75
2019-06-01T19:52:03.848Z,70.38
2019-06-01T19:55:10.778Z,70.21
2019-06-01T19:58:18.773Z,69.96
2019-06-01T20:01:25.365Z,69.53
2019-06-01T20:04:31.992Z,69.73
2019-06-01T20:07:38.379Z,69.83
2019-06-01T20:10:44.796Z,69.39
2019-06-01T20:13:51.339Z,69.11
2019-06-01T20:16:57.701Z,69.21
2019-06-01T20:20:04.374Z,68.99
2019-06-01T20:23:11.283Z,68.85
2019-06-01T20:26:17.855Z,69.08
2019-06-01T20:29:24.206Z,68.99
2019-06-01T20:32:30.709Z,69.05
2019-06-01T20:35:37.063Z,68.99
2019-06-01T20:38:43.521Z,69.31
2019-06-01T20:41:49.953Z,69.17
2019-06-01T20:44:56.479Z,69.40
2019-06-01T20:48:02.873Z,69.36
2019-06-01T20:51:09.367Z,69.19
2019-06-01T20:54:16.898Z,69.67
2019-06-01T20:57:24.015Z,69.40
2019-06-01T21:00:31.903Z,69.42
2019-06-01T21:03:38.777Z,69.73
2019-06-01T21:06:45.412Z,69.79
2019-06-01T21:09:51.952Z,69.74
2019-06-01T21:12:58.360Z,69.74
2019-06-01T21:16:04.817Z,69.56
2019-06-01T21:19:11.252Z,69.46
2019-06-01T21:22:18.524Z,69.81
2019-06-01T21:25:25.482Z,70.06
2019-06-01T21:28:32.034Z,70.12
2019-06-01T21:31:38.470Z,70.16
2019-06-01T21:34:44.770Z,70.10
2019-06-01T21:37:51.144Z,70.16
2019-06-01T21:40:58.665Z,70.18
2019-06-01T21:44:05.096Z,70.81
2019-06-01T21:47:11.467Z,70.98
2019-06-01T21:50:18.246Z,70.95
2019-06-01T21:53:24.782Z,70.83
2019-06-01T21:56:31.192Z,70.97
2019-06-01T21:59:37.628Z,71.05
2019-06-01T22:02:44.001Z,71.03
2019-06-01T22:05:50.721Z,71.23
2019-06-01T22:08:57.354Z,70.68
2019-06-01T22:12:03.830Z,70.59
2019-06-01T22:15:10.949Z,70.20
2019-06-01T22:18:17.638Z,69.79
2019-06-01T22:21:23.997Z,69.55
2019-06-01T22:24:30.307Z,69.55
2019-06-01T22:27:36.825Z,69.80
2019-06-01T22:30:43.336Z,69.54
2019-06-01T22:33:49.612Z,69.61
2019-06-01T22:36:56.145Z,69.72
2019-06-01T22:40:02.508Z,69.72
2019-06-01T22:43:09.013Z,69.89
2019-06-01T22:46:15.391Z,69.89
2019-06-01T22:49:22.660Z,69.94
2019-06-01T22:52:29.205Z,69.97
2019-06-01T22:55:35.718Z,69.84
2019-06-01T22:58:42.115Z,69.94
2019-06-01T23:01:48.497Z,69.88
2019-06-01T23:04:54.994Z,70.09
2019-06-01T23:08:01.594Z,70.09
2019-06-01T23:11:08.164Z,70.16
2019-06-01T23:14:14.644Z,70.27
2019-06-01T23:17:21.552Z,70.45
2019-06-01T23:20:28.070Z,69.92
2019-06-01T23:23:34.438Z,69.92
2019-06-01T23:26:41.243Z,70.22
2019-06-01T23:29:47.788Z,70.36
2019-06-01T23:32:54.110Z,70.24
2019-06-01T23:36:00.450Z,70.32
2019-06-01T23:39:07.638Z,70.43
2019-06-01T23:42:13.992Z,70.65
2019-06-01T23:45:20.521Z,70.71
2019-06-01T23:48:27.242Z,70.89
2019-06-01T23:51:34.040Z,71.51
2019-06-01T23:54:41.448Z,71.50
2019-06-01T23:57:47.915Z,72.29
